Time;durP1;ratioP1;P1;durP2;ratioP2;P2;SDS_P1;SDS_P2;PMS_P1;PMS_P2;Temp;Humidity;BMP_temperature;BMP_pressure;BME280_temperature;BME280_humidity;BME280_pressure;Samples;Min_cycle;Max_cycle;Signal;HPM_P1;HPM_P2
2024/01/05 05:06:03;;;;;;;0.30;0.30;;;8.80;99.90;;;;;;5958919;23;20243;-67
2024/01/05 05:08:29;;;;;;;0.33;0.33;;;8.90;99.90;;;;;;4917692;29;20257;-66
2024/01/05 05:10:55;;;;;;;0.30;0.30;;;9.00;99.90;;;;;;4917710;29;20399;-66
2024/01/05 05:13:20;;;;;;;0.30;0.30;;;9.00;99.90;;;;;;4917580;29;20194;-67
2024/01/05 05:15:46;;;;;;;0.30;0.30;;;9.00;99.90;;;;;;4917412;29;20202;-67
2024/01/05 05:18:11;;;;;;;0.30;0.30;;;9.00;99.90;;;;;;4917475;29;20638;-66
2024/01/05 05:20:37;;;;;;;0.30;0.30;;;8.90;99.90;;;;;;4917550;29;20170;-67
2024/01/05 05:23:03;;;;;;;0.33;0.33;;;8.90;99.90;;;;;;4917648;29;20185;-67
2024/01/05 05:25:28;;;;;;;0.30;0.30;;;8.90;99.90;;;;;;4916946;29;20193;-67
2024/01/05 05:27:54;;;;;;;0.87;0.87;;;8.80;99.90;;;;;;4917365;29;20442;-67
2024/01/05 05:30:20;;;;;;;0.30;0.30;;;8.80;99.90;;;;;;4917228;29;20177;-66
2024/01/05 05:32:46;;;;;;;0.30;0.30;;;8.80;99.90;;;;;;4917292;29;20194;-67
2024/01/05 05:35:11;;;;;;;0.30;0.30;;;8.80;99.90;;;;;;4916074;29;20194;-68
2024/01/05 05:37:37;;;;;;;0.30;0.30;;;8.80;99.90;;;;;;4915750;29;20414;-67
2024/01/05 05:40:03;;;;;;;0.30;0.30;;;8.80;99.90;;;;;;4917071;29;20178;-67
2024/01/05 05:42:28;;;;;;;0.20;0.20;;;8.80;99.90;;;;;;4917990;29;20186;-68
2024/01/05 05:44:54;;;;;;;0.37;0.37;;;8.70;99.90;;;;;;4916776;29;20174;-67
2024/01/05 05:47:20;;;;;;;0.30;0.30;;;8.70;99.90;;;;;;4916077;29;20178;-68
2024/01/05 05:49:45;;;;;;;0.30;0.27;;;8.70;99.90;;;;;;4916973;29;20181;-67
2024/01/05 05:52:11;;;;;;;0.30;0.20;;;8.70;99.90;;;;;;4916942;29;20178;-67
2024/01/05 05:54:38;;;;;;;0.30;0.30;;;8.70;99.90;;;;;;4899134;29;20550;-67
2024/01/05 05:57:07;;;;;;;0.40;0.40;;;8.70;99.90;;;;;;4916807;29;20200;-68
2024/01/05 05:59:32;;;;;;;0.30;0.28;;;8.70;99.90;;;;;;4915650;29;20583;-67
2024/01/05 06:01:58;;;;;;;0.30;0.30;;;8.70;99.90;;;;;;4916827;29;20174;-67
2024/01/05 06:04:25;;;;;;;0.30;0.30;;;8.60;99.90;;;;;;4916704;29;20189;-67
2024/01/05 06:06:50;;;;;;;0.20;0.20;;;8.60;99.90;;;;;;4899940;29;20585;-68
2024/01/05 06:09:16;;;;;;;0.40;0.40;;;8.50;99.90;;;;;;4915637;29;20180;-68
2024/01/05 06:11:41;;;;;;;0.30;0.30;;;8.50;99.90;;;;;;4916878;29;20534;-69
2024/01/05 06:14:07;;;;;;;0.30;0.30;;;8.50;99.90;;;;;;4916723;29;20721;-68
2024/01/05 06:16:33;;;;;;;0.30;0.30;;;8.50;99.90;;;;;;4916668;29;20213;-66
2024/01/05 06:18:58;;;;;;;0.30;0.30;;;8.50;99.90;;;;;;4916971;29;20170;-66
2024/01/05 06:21:25;;;;;;;0.30;0.30;;;8.50;99.90;;;;;;4915101;29;20181;-66
2024/01/05 06:23:50;;;;;;;0.30;0.30;;;8.40;99.90;;;;;;4915385;29;20185;-66
2024/01/05 06:26:16;;;;;;;0.30;0.30;;;8.50;99.90;;;;;;4914406;29;20670;-65
2024/01/05 06:28:42;;;;;;;0.30;0.30;;;8.50;99.90;;;;;;4916605;29;20197;-66
2024/01/05 06:31:08;;;;;;;0.40;0.40;;;8.50;99.90;;;;;;4916501;29;20189;-66
2024/01/05 06:33:34;;;;;;;0.30;0.20;;;8.60;99.90;;;;;;4916420;29;20205;-66
2024/01/05 06:36:00;;;;;;;0.30;0.30;;;8.60;99.90;;;;;;4916270;29;20186;-66
2024/01/05 06:38:25;;;;;;;0.30;0.30;;;8.60;99.90;;;;;;4915998;29;20178;-66
2024/01/05 06:40:51;;;;;;;0.40;0.40;;;8.60;99.90;;;;;;4916650;29;20257;-66
2024/01/05 06:43:16;;;;;;;0.40;0.40;;;8.60;99.90;;;;;;4915104;29;20175;-66
2024/01/05 06:45:42;;;;;;;0.40;0.40;;;8.60;99.90;;;;;;4916171;29;20201;-66
2024/01/05 06:48:08;;;;;;;0.30;0.30;;;8.70;99.90;;;;;;4916362;29;20249;-65
2024/01/05 06:50:33;;;;;;;0.30;0.30;;;8.70;99.90;;;;;;4916530;29;20178;-65
2024/01/05 06:52:59;;;;;;;0.40;0.40;;;8.70;99.90;;;;;;4916359;29;20210;-64
2024/01/05 06:55:24;;;;;;;0.30;0.30;;;8.70;99.90;;;;;;4916121;29;20657;-66
2024/01/05 06:57:50;;;;;;;0.30;0.30;;;8.70;99.90;;;;;;4916420;29;20197;-66
2024/01/05 07:00:16;;;;;;;0.30;0.30;;;8.70;99.90;;;;;;4916610;29;20202;-67
2024/01/05 07:02:41;;;;;;;0.30;0.30;;;8.70;99.90;;;;;;4916228;29;20257;-66
2024/01/05 07:05:07;;;;;;;0.30;0.30;;;8.70;99.90;;;;;;4919116;29;20984;-66
2024/01/05 07:07:33;;;;;;;0.30;0.30;;;8.70;99.90;;;;;;4919658;29;20201;-66
2024/01/05 07:09:59;;;;;;;0.30;0.30;;;8.70;99.90;;;;;;4919652;29;20201;-67
2024/01/05 07:12:27;;;;;;;0.33;0.33;;;8.70;99.90;;;;;;4919486;29;20170;-67
2024/01/05 07:14:52;;;;;;;0.30;0.30;;;8.60;99.90;;;;;;4919661;29;20257;-66
2024/01/05 07:17:18;;;;;;;0.20;0.20;;;8.60;99.90;;;;;;4919744;29;20235;-66
2024/01/05 07:19:44;;;;;;;0.30;0.30;;;8.60;99.90;;;;;;4919471;29;20274;-66
2024/01/05 07:22:09;;;;;;;0.30;0.30;;;8.60;99.90;;;;;;4918476;29;20180;-66
2024/01/05 07:24:38;;;;;;;0.30;0.20;;;8.60;99.90;;;;;;4919402;29;20190;-66
2024/01/05 07:27:06;;;;;;;0.30;0.30;;;8.60;99.90;;;;;;4919347;29;20658;-66
2024/01/05 07:29:32;;;;;;;0.30;0.30;;;8.50;99.90;;;;;;4919453;29;20170;-66
2024/01/05 07:31:58;;;;;;;0.30;0.30;;;8.50;99.90;;;;;;4919456;29;20648;-66
2024/01/05 07:34:23;;;;;;;0.30;0.30;;;8.50;99.90;;;;;;4918973;29;20871;-66
2024/01/05 07:36:49;;;;;;;0.40;0.40;;;8.50;99.90;;;;;;4919259;29;20190;-65
2024/01/05 07:39:15;;;;;;;0.30;0.30;;;8.50;99.90;;;;;;4919308;29;20253;-67
2024/01/05 07:41:41;;;;;;;0.30;0.30;;;8.50;99.90;;;;;;4919151;29;20171;-66
2024/01/05 07:44:07;;;;;;;0.30;0.30;;;8.50;99.90;;;;;;4918934;29;20438;-67
2024/01/05 07:46:40;;;;;;;0.30;0.30;;;8.50;99.90;;;;;;4919103;29;20521;-66
2024/01/05 07:49:06;;;;;;;0.30;0.30;;;8.60;99.90;;;;;;4917933;29;20260;-66
2024/01/05 07:51:31;;;;;;;0.30;0.30;;;8.60;99.90;;;;;;4917916;29;20274;-69
2024/01/05 07:53:57;;;;;;;0.37;0.37;;;8.60;99.90;;;;;;4919561;29;20246;-66
2024/01/05 07:56:22;;;;;;;0.30;0.30;;;8.60;99.90;;;;;;4918646;29;20214;-67
2024/01/05 07:58:49;;;;;;;0.30;0.20;;;8.70;99.90;;;;;;4918580;29;20700;-66
2024/01/05 08:01:19;;;;;;;0.30;0.30;;;8.70;99.90;;;;;;4901441;29;20179;-67
2024/01/05 08:03:45;;;;;;;0.30;0.30;;;8.70;99.90;;;;;;4918655;29;20534;-68
2024/01/05 08:06:18;;;;;;;0.30;0.30;;;8.80;99.90;;;;;;4918239;29;20214;-66
2024/01/05 08:08:49;;;;;;;0.30;0.30;;;8.80;99.90;;;;;;4918634;29;20169;-67
2024/01/05 08:11:16;;;;;;;0.30;0.30;;;8.90;99.90;;;;;;4918951;29;20253;-66
2024/01/05 08:13:42;;;;;;;0.30;0.30;;;8.90;99.90;;;;;;4917123;29;20202;-67
2024/01/05 08:16:08;;;;;;;0.30;0.30;;;8.90;99.90;;;;;;4916418;29;20205;-64
2024/01/05 08:18:38;;;;;;;0.30;0.30;;;9.00;99.90;;;;;;4918529;29;20170;-64
2024/01/05 08:21:07;;;;;;;0.60;0.50;;;9.00;99.90;;;;;;4918901;29;20205;-66
2024/01/05 08:23:33;;;;;;;0.30;0.30;;;9.10;99.90;;;;;;4918590;29;20254;-64
2024/01/05 08:25:59;;;;;;;0.30;0.30;;;9.10;99.90;;;;;;4917993;29;20289;-62
2024/01/05 08:28:25;;;;;;;0.30;0.30;;;9.20;99.90;;;;;;4917253;29;20216;-64
2024/01/05 08:30:51;;;;;;;0.32;0.32;;;9.30;99.90;;;;;;4899441;29;20179;-64
2024/01/05 08:33:17;;;;;;;0.30;0.30;;;9.30;99.90;;;;;;4899596;29;20214;-64
2024/01/05 08:35:42;;;;;;;0.30;0.30;;;9.40;99.90;;;;;;4899262;29;20265;-63
2024/01/05 08:38:08;;;;;;;0.30;0.30;;;9.40;99.90;;;;;;4899250;29;20179;-64
2024/01/05 08:40:34;;;;;;;0.30;0.30;;;9.50;99.90;;;;;;4899239;29;20171;-63
2024/01/05 08:42:59;;;;;;;0.30;0.30;;;9.60;99.90;;;;;;4897921;29;20182;-65
2024/01/05 08:45:27;;;;;;;0.43;0.43;;;9.70;99.90;;;;;;4916741;29;20196;-63
2024/01/05 08:47:53;;;;;;;0.30;0.30;;;9.70;99.90;;;;;;4918094;29;20210;-62
2024/01/05 08:50:19;;;;;;;0.30;0.20;;;9.80;99.90;;;;;;4918160;29;20223;-68
2024/01/05 08:52:46;;;;;;;0.30;0.30;;;9.90;99.90;;;;;;4918102;29;20778;-63
2024/01/05 08:55:15;;;;;;;0.30;0.30;;;10.00;99.90;;;;;;4917297;29;20285;-62
2024/01/05 08:57:41;;;;;;;0.30;0.30;;;10.00;99.90;;;;;;4917257;29;20547;-64
2024/01/05 09:00:09;;;;;;;0.30;0.30;;;10.00;99.90;;;;;;4917478;29;20191;-65
2024/01/05 09:02:38;;;;;;;0.60;0.60;;;10.10;99.90;;;;;;4917633;29;20203;-63
2024/01/05 09:05:04;;;;;;;0.30;0.20;;;10.20;99.90;;;;;;4917077;29;20414;-63
2024/01/05 09:07:31;;;;;;;0.30;0.30;;;10.30;99.90;;;;;;4907913;29;20442;-65
2024/01/05 09:09:56;;;;;;;0.30;0.30;;;10.30;99.90;;;;;;4898696;29;20429;-63
2024/01/05 09:12:22;;;;;;;0.30;0.30;;;10.40;99.90;;;;;;4898500;29;20417;-64
2024/01/05 09:14:48;;;;;;;0.40;0.40;;;10.40;99.90;;;;;;4898188;29;20179;-62
2024/01/05 09:17:14;;;;;;;0.30;0.30;;;10.50;99.90;;;;;;4898686;29;20239;-64
2024/01/05 09:19:39;;;;;;;0.30;0.30;;;10.50;99.90;;;;;;4898778;29;20199;-64
2024/01/05 09:22:07;;;;;;;0.30;0.20;;;10.40;99.90;;;;;;4906121;29;20839;-64
2024/01/05 09:24:33;;;;;;;0.30;0.30;;;10.40;99.90;;;;;;4917039;29;20240;-63
2024/01/05 09:26:58;;;;;;;0.40;0.40;;;10.40;99.90;;;;;;4917054;29;20948;-62
2024/01/05 09:29:24;;;;;;;0.40;0.40;;;10.30;99.90;;;;;;4916055;29;20470;-65
2024/01/05 09:31:51;;;;;;;0.30;0.30;;;10.30;99.90;;;;;;4917120;29;20227;-64
2024/01/05 09:34:17;;;;;;;0.30;0.30;;;10.20;99.90;;;;;;4916504;29;20213;-64
2024/01/05 09:36:42;;;;;;;0.30;0.30;;;10.20;99.90;;;;;;4916179;29;20206;-65
2024/01/05 09:39:11;;;;;;;0.30;0.30;;;10.20;99.90;;;;;;4917137;29;20627;-63
2024/01/05 09:41:36;;;;;;;0.30;0.30;;;10.20;99.90;;;;;;4916714;29;20191;-64
2024/01/05 09:44:03;;;;;;;0.30;0.30;;;10.20;99.90;;;;;;4915845;29;20554;-63
2024/01/05 09:46:29;;;;;;;0.30;0.30;;;10.20;99.90;;;;;;4916584;29;20203;-62
2024/01/05 09:48:58;;;;;;;1.23;1.13;;;10.20;99.90;;;;;;4916802;29;20411;-64
2024/01/05 09:51:28;;;;;;;0.40;0.40;;;10.20;99.90;;;;;;4909751;29;20810;-63
2024/01/05 09:53:54;;;;;;;0.30;0.30;;;10.20;99.90;;;;;;4898171;29;20254;-64
2024/01/05 09:56:21;;;;;;;0.30;0.30;;;10.20;99.90;;;;;;4897551;29;20482;-63
2024/01/05 09:58:50;;;;;;;0.30;0.28;;;10.30;99.90;;;;;;4896162;29;20196;-65
2024/01/05 10:01:28;;;;;;;0.30;0.30;;;10.30;99.90;;;;;;4895951;29;20177;-66
2024/01/05 10:03:59;;;;;;;0.30;0.30;;;10.40;99.90;;;;;;4895994;29;20761;-66
2024/01/05 10:06:25;;;;;;;0.30;0.20;;;10.40;99.90;;;;;;4904236;29;20217;-65
2024/01/05 10:09:00;;;;;;;0.30;0.30;;;10.40;99.90;;;;;;4914978;29;20182;-64
2024/01/05 10:11:34;;;;;;;0.30;0.30;;;10.40;99.90;;;;;;4915062;29;20420;-65
2024/01/05 10:14:05;;;;;;;0.30;0.30;;;10.50;99.90;;;;;;4916523;29;20483;-64
2024/01/05 10:16:36;;;;;;;0.30;0.30;;;10.40;99.90;;;;;;4916668;29;20404;-65
2024/01/05 10:19:28;;;;;;;0.30;0.20;;;10.40;99.90;;;;;;4916945;29;20399;-65
2024/01/05 10:21:54;;;;;;;0.33;0.33;;;10.40;99.90;;;;;;4899378;29;20199;-65
2024/01/05 10:24:21;;;;;;;0.30;0.30;;;10.40;99.90;;;;;;4897518;29;20816;-64
2024/01/05 10:27:09;;;;;;;0.30;0.28;;;10.40;99.90;;;;;;4897769;29;20429;-65
2024/01/05 10:29:37;;;;;;;0.30;0.30;;;10.50;99.90;;;;;;4897912;29;20208;-65
2024/01/05 10:32:14;;;;;;;0.77;0.40;;;10.40;99.90;;;;;;4897809;29;20180;-66
2024/01/05 10:34:45;;;;;;;0.30;0.30;;;10.50;99.90;;;;;;4897440;29;20470;-65
2024/01/05 10:37:11;;;;;;;0.30;0.30;;;10.50;99.90;;;;;;4897933;29;20469;-64
2024/01/05 10:39:38;;;;;;;0.30;0.30;;;10.50;99.90;;;;;;4900342;29;20441;-64
2024/01/05 10:42:29;;;;;;;0.30;0.30;;;10.60;99.90;;;;;;4901580;29;20260;-65
2024/01/05 10:44:58;;;;;;;0.30;0.30;;;10.60;99.90;;;;;;4901342;29;20413;-65
2024/01/05 10:47:26;;;;;;;0.30;0.30;;;10.70;99.90;;;;;;4900030;29;20418;-64
2024/01/05 10:49:55;;;;;;;0.30;0.20;;;10.80;99.90;;;;;;4903706;29;20429;-63
2024/01/05 10:52:27;;;;;;;0.30;0.30;;;10.90;99.90;;;;;;4918708;29;20412;-63
2024/01/05 10:54:53;;;;;;;0.40;0.40;;;10.90;99.90;;;;;;4919747;29;20729;-64
2024/01/05 10:57:20;;;;;;;0.30;0.30;;;11.00;99.90;;;;;;4920175;29;20472;-63
2024/01/05 10:59:48;;;;;;;0.30;0.30;;;11.10;99.90;;;;;;4918752;29;20406;-64
2024/01/05 11:02:40;;;;;;;0.30;0.30;;;11.20;99.90;;;;;;4919909;29;20388;-63
2024/01/05 11:05:08;;;;;;;0.30;0.30;;;11.20;99.90;;;;;;4912962;29;20538;-64
2024/01/05 11:07:35;;;;;;;0.30;0.23;;;11.30;99.90;;;;;;4900793;29;20434;-64
2024/01/05 11:10:07;;;;;;;0.47;0.47;;;11.40;99.90;;;;;;4899633;29;20414;-63
2024/01/05 11:12:38;;;;;;;0.33;0.33;;;11.40;99.90;;;;;;4900847;29;20418;-64
2024/01/05 11:15:04;;;;;;;0.30;0.30;;;11.40;99.90;;;;;;4900334;29;20806;-63
2024/01/05 11:17:40;;;;;;;0.30;0.30;;;11.50;99.90;;;;;;4900840;29;20445;-64
2024/01/05 11:20:18;;;;;;;0.30;0.20;;;11.40;99.90;;;;;;4908786;29;20216;-64
2024/01/05 11:22:47;;;;;;;0.53;0.53;;;11.40;99.90;;;;;;4919729;29;20456;-63
2024/01/05 11:25:15;;;;;;;0.30;0.30;;;11.40;99.90;;;;;;4917806;29;20445;-63
2024/01/05 11:27:47;;;;;;;0.30;0.30;;;11.40;99.90;;;;;;4919629;29;20410;-64
2024/01/05 11:30:13;;;;;;;0.30;0.30;;;11.40;99.90;;;;;;4919634;29;20416;-63
2024/01/05 11:32:45;;;;;;;0.30;0.30;;;11.50;99.90;;;;;;4919232;29;20541;-63
2024/01/05 11:35:36;;;;;;;0.30;0.30;;;11.60;99.90;;;;;;4908031;29;20275;-64
2024/01/05 11:38:23;;;;;;;0.30;0.30;;;11.60;99.90;;;;;;4901204;29;20437;-64
2024/01/05 11:40:48;;;;;;;0.30;0.30;;;11.70;99.90;;;;;;4900194;29;20400;-63
2024/01/05 11:43:30;;;;;;;0.30;0.30;;;11.70;99.90;;;;;;4900413;29;20903;-64
2024/01/05 11:45:55;;;;;;;0.30;0.30;;;11.80;99.90;;;;;;4899937;29;20300;-65
2024/01/05 11:48:44;;;;;;;0.60;0.50;;;11.80;99.90;;;;;;4900316;29;20435;-64
2024/01/05 11:51:12;;;;;;;0.30;0.30;;;11.70;99.90;;;;;;4900070;29;20771;-64
2024/01/05 11:53:38;;;;;;;0.30;0.30;;;11.70;99.90;;;;;;4914675;29;20552;-64
2024/01/05 11:56:10;;;;;;;0.30;0.30;;;11.70;99.90;;;;;;4918552;29;20534;-64
2024/01/05 11:58:37;;;;;;;0.30;0.30;;;11.70;99.90;;;;;;4919020;29;20252;-64
2024/01/05 12:01:05;;;;;;;0.30;0.30;;;11.70;99.90;;;;;;4918438;29;20504;-63
2024/01/05 12:03:31;;;;;;;0.30;0.27;;;11.70;99.90;;;;;;4918809;29;20413;-63
2024/01/05 12:05:59;;;;;;;0.30;0.30;;;11.70;99.90;;;;;;4918154;29;20462;-63
2024/01/05 12:08:25;;;;;;;0.30;0.30;;;11.80;99.90;;;;;;4902853;29;20519;-63
2024/01/05 12:10:56;;;;;;;0.30;0.30;;;11.80;99.90;;;;;;4899829;29;20407;-62
2024/01/05 12:13:24;;;;;;;0.30;0.30;;;11.80;99.90;;;;;;4899762;29;20865;-63
2024/01/05 12:15:54;;;;;;;0.30;0.20;;;11.80;99.90;;;;;;4899205;29;20438;-63
2024/01/05 12:18:25;;;;;;;0.50;0.40;;;11.70;99.90;;;;;;4913752;29;20421;-63
2024/01/05 12:20:55;;;;;;;0.30;0.30;;;11.60;99.90;;;;;;4918773;29;20406;-62
2024/01/05 12:23:21;;;;;;;0.30;0.30;;;11.60;99.90;;;;;;4918428;29;20926;-62
2024/01/05 12:26:16;;;;;;;0.30;0.20;;;11.60;99.90;;;;;;4917956;29;20442;-62
2024/01/05 12:28:42;;;;;;;0.30;0.30;;;11.60;99.90;;;;;;4906216;29;20440;-62
2024/01/05 12:31:09;;;;;;;0.30;0.30;;;11.60;99.90;;;;;;4916907;29;20922;-60
2024/01/05 12:33:37;;;;;;;0.30;0.30;;;11.50;99.90;;;;;;4899292;29;20209;-61
2024/01/05 12:36:04;;;;;;;0.40;0.40;;;11.50;99.90;;;;;;4898990;29;20859;-62
2024/01/05 12:38:30;;;;;;;0.30;0.20;;;11.50;99.90;;;;;;4899218;29;20477;-64
2024/01/05 12:41:13;;;;;;;0.30;0.20;;;11.40;99.90;;;;;;4899425;29;20540;-64
2024/01/05 12:43:47;;;;;;;0.30;0.20;;;11.40;99.90;;;;;;4898971;29;20395;-64
2024/01/05 12:46:14;;;;;;;0.30;0.20;;;11.40;99.90;;;;;;4899361;29;20446;-64
2024/01/05 12:48:40;;;;;;;0.30;0.30;;;11.40;99.90;;;;;;4913612;29;20464;-64
2024/01/05 12:51:14;;;;;;;0.30;0.30;;;11.40;99.90;;;;;;4908447;29;20971;-66
2024/01/05 12:53:40;;;;;;;0.60;0.60;;;11.40;99.90;;;;;;4917787;29;20209;-64
2024/01/05 12:56:10;;;;;;;0.40;0.40;;;11.50;99.90;;;;;;4917547;29;20544;-64
2024/01/05 12:58:38;;;;;;;0.30;0.30;;;11.50;99.90;;;;;;4917804;29;20188;-64
2024/01/05 13:01:03;;;;;;;0.30;0.30;;;11.50;99.90;;;;;;4917262;29;20408;-65
2024/01/05 13:03:31;;;;;;;0.30;0.30;;;11.50;99.90;;;;;;4917115;29;20508;-64
2024/01/05 13:06:07;;;;;;;0.30;0.30;;;11.40;99.90;;;;;;4917510;29;20293;-66
2024/01/05 13:08:35;;;;;;;0.30;0.30;;;11.40;99.90;;;;;;4916824;29;20531;-63
2024/01/05 13:11:06;;;;;;;0.30;0.20;;;11.40;99.90;;;;;;4916138;29;20521;-65
2024/01/05 13:13:32;;;;;;;0.30;0.30;;;11.40;99.90;;;;;;4917096;29;20476;-66
2024/01/05 13:15:59;;;;;;;0.30;0.30;;;11.30;99.90;;;;;;4916203;29;20959;-67
2024/01/05 13:18:25;;;;;;;2.50;0.60;;;11.30;99.90;;;;;;4917281;29;20707;-66
2024/01/05 13:20:50;;;;;;;0.30;0.30;;;11.30;99.90;;;;;;4917468;29;20874;-63
2024/01/05 13:23:16;;;;;;;0.30;0.30;;;11.30;99.90;;;;;;4900411;29;20430;-63
2024/01/05 13:25:42;;;;;;;0.30;0.30;;;11.30;99.90;;;;;;4896853;29;20218;-64
2024/01/05 13:28:07;;;;;;;0.30;0.30;;;11.40;99.90;;;;;;4896475;29;20669;-68
2024/01/05 13:30:34;;;;;;;0.30;0.30;;;11.40;99.90;;;;;;4896536;29;20224;-67
2024/01/05 13:33:00;;;;;;;0.30;0.30;;;11.30;99.90;;;;;;4896131;29;20516;-65
2024/01/05 13:35:25;;;;;;;0.30;0.30;;;11.20;99.90;;;;;;4895948;29;20533;-65
2024/01/05 13:37:51;;;;;;;0.30;0.30;;;11.20;99.90;;;;;;4912073;29;20264;-65
2024/01/05 13:40:16;;;;;;;0.30;0.30;;;11.20;99.90;;;;;;4897983;29;20296;-64
2024/01/05 13:42:42;;;;;;;0.30;0.20;;;11.20;99.90;;;;;;4917278;29;20176;-64
2024/01/05 13:45:08;;;;;;;0.30;0.30;;;11.20;99.90;;;;;;4916986;29;20197;-64
2024/01/05 13:47:34;;;;;;;0.40;0.40;;;11.20;99.90;;;;;;4917210;29;20191;-64
2024/01/05 13:50:01;;;;;;;0.30;0.30;;;11.10;99.90;;;;;;4917110;29;20403;-64
2024/01/05 13:52:26;;;;;;;0.30;0.30;;;11.10;99.90;;;;;;4900546;29;20463;-64
2024/01/05 13:54:53;;;;;;;0.30;0.30;;;11.10;99.90;;;;;;4896379;29;20521;-64
2024/01/05 13:57:21;;;;;;;0.30;0.30;;;11.00;99.90;;;;;;4898219;29;20485;-64
2024/01/05 13:59:47;;;;;;;0.30;0.30;;;11.00;99.90;;;;;;4902485;29;20391;-64
2024/01/05 14:02:12;;;;;;;0.30;0.30;;;10.90;99.90;;;;;;4917160;29;20424;-64
2024/01/05 14:04:38;;;;;;;0.30;0.30;;;10.90;99.90;;;;;;4898923;29;20199;-64
2024/01/05 14:07:04;;;;;;;0.30;0.30;;;10.90;99.90;;;;;;4916711;29;20227;-65
2024/01/05 14:09:30;;;;;;;0.30;0.27;;;10.90;99.90;;;;;;4916573;29;20207;-64
2024/01/05 14:11:55;;;;;;;0.30;0.30;;;10.90;99.90;;;;;;4899212;29;20188;-64
2024/01/05 14:14:21;;;;;;;0.30;0.20;;;10.90;99.90;;;;;;4915534;29;20465;-64
2024/01/05 14:16:47;;;;;;;0.30;0.30;;;10.90;99.90;;;;;;4916694;29;20196;-64
2024/01/05 14:19:12;;;;;;;0.30;0.30;;;10.90;99.90;;;;;;4916659;29;20183;-64
2024/01/05 14:21:38;;;;;;;0.30;0.30;;;10.90;99.90;;;;;;4916728;29;20241;-64
2024/01/05 14:24:04;;;;;;;0.33;0.33;;;10.90;99.90;;;;;;4909988;29;20181;-76
2024/01/05 14:26:30;;;;;;;0.30;0.30;;;10.80;99.90;;;;;;4897738;29;20443;-64
2024/01/05 14:28:55;;;;;;;0.33;0.33;;;10.80;99.90;;;;;;4897844;29;20196;-64
2024/01/05 14:31:33;;;;;;;0.30;0.30;;;10.80;99.90;;;;;;4897906;29;20185;-64
2024/01/05 14:33:59;;;;;;;0.40;0.40;;;10.80;99.90;;;;;;4897562;29;20213;-64
2024/01/05 14:36:25;;;;;;;0.30;0.30;;;10.70;99.90;;;;;;4897447;29;20471;-64
2024/01/05 14:38:51;;;;;;;0.30;0.30;;;10.70;99.90;;;;;;4903980;29;20442;-64
2024/01/05 14:41:17;;;;;;;0.60;0.60;;;10.70;99.90;;;;;;4916608;29;20196;-64
2024/01/05 14:43:43;;;;;;;0.30;0.30;;;10.60;99.90;;;;;;4916650;29;20184;-64
2024/01/05 14:46:10;;;;;;;0.33;0.33;;;10.60;99.90;;;;;;4914591;29;21028;-65
2024/01/05 14:48:36;;;;;;;0.30;0.30;;;10.60;99.90;;;;;;4916370;29;20423;-64
2024/01/05 14:51:03;;;;;;;0.30;0.30;;;10.60;99.90;;;;;;4916162;29;20833;-64
2024/01/05 14:53:29;;;;;;;0.40;0.40;;;10.60;99.90;;;;;;4915389;29;20492;-64
2024/01/05 14:55:55;;;;;;;0.40;0.40;;;10.50;99.90;;;;;;4916243;29;20778;-64
2024/01/05 14:58:20;;;;;;;0.30;0.27;;;10.40;99.90;;;;;;4916447;29;20181;-65
2024/01/05 15:00:46;;;;;;;0.40;0.40;;;10.30;99.90;;;;;;4916390;29;20183;-64
2024/01/05 15:03:12;;;;;;;0.30;0.30;;;10.20;99.90;;;;;;4916415;29;20193;-64
2024/01/05 15:05:37;;;;;;;0.30;0.30;;;10.10;99.90;;;;;;4916100;29;20728;-64
2024/01/05 15:08:04;;;;;;;0.40;0.40;;;10.00;99.90;;;;;;4910514;29;20662;-64
2024/01/05 15:10:31;;;;;;;0.30;0.30;;;9.90;99.90;;;;;;4897554;29;20271;-64
2024/01/05 15:12:59;;;;;;;0.40;0.40;;;9.80;99.90;;;;;;4897425;29;20219;-64
2024/01/05 15:15:25;;;;;;;0.40;0.40;;;9.70;99.90;;;;;;4897017;29;20204;-64
2024/01/05 15:17:50;;;;;;;0.30;0.30;;;9.70;99.90;;;;;;4897323;29;20667;-64
2024/01/05 15:20:19;;;;;;;0.30;0.30;;;9.70;99.90;;;;;;4897458;29;20172;-64
2024/01/05 15:22:44;;;;;;;0.30;0.20;;;9.60;99.90;;;;;;4897386;29;20653;-63
2024/01/05 15:25:15;;;;;;;0.50;0.50;;;9.50;99.90;;;;;;4898655;29;20210;-64
2024/01/05 15:27:41;;;;;;;0.50;0.50;;;9.50;99.90;;;;;;4900656;29;20192;-64
2024/01/05 15:30:08;;;;;;;0.30;0.30;;;9.40;99.90;;;;;;4899258;29;20271;-64
2024/01/05 15:32:33;;;;;;;0.40;0.40;;;9.40;99.90;;;;;;4899259;29;20191;-63
2024/01/05 15:34:59;;;;;;;0.30;0.30;;;9.40;99.90;;;;;;4900166;29;20171;-64
2024/01/05 15:37:25;;;;;;;0.30;0.30;;;9.30;99.90;;;;;;4883151;29;20183;-64
2024/01/05 15:39:50;;;;;;;0.30;0.30;;;9.30;99.90;;;;;;4900611;29;20184;-64
2024/01/05 15:42:16;;;;;;;0.40;0.40;;;9.20;99.90;;;;;;4900856;29;20206;-64
2024/01/05 15:44:42;;;;;;;0.30;0.30;;;9.20;99.90;;;;;;4899893;29;20179;-64
2024/01/05 15:47:08;;;;;;;0.30;0.30;;;9.20;99.90;;;;;;4899876;29;20207;-64
2024/01/05 15:49:33;;;;;;;0.30;0.30;;;9.10;99.90;;;;;;4882885;29;20227;-64
2024/01/05 15:51:59;;;;;;;0.30;0.30;;;9.10;99.90;;;;;;4900224;29;20412;-63
2024/01/05 15:54:24;;;;;;;0.40;0.40;;;9.10;99.90;;;;;;4899936;29;20314;-64
2024/01/05 15:56:50;;;;;;;0.30;0.30;;;9.00;99.90;;;;;;4900279;29;20282;-64
2024/01/05 15:59:16;;;;;;;0.30;0.30;;;9.00;99.90;;;;;;4900127;29;20188;-64
2024/01/05 16:01:47;;;;;;;0.30;0.30;;;9.00;99.90;;;;;;4900218;29;20171;-63
2024/01/05 16:04:14;;;;;;;0.30;0.30;;;9.00;99.90;;;;;;4899864;29;20201;-65
2024/01/05 16:06:39;;;;;;;0.30;0.30;;;9.00;99.90;;;;;;4898725;29;20645;-64
2024/01/05 16:09:05;;;;;;;0.40;0.40;;;9.00;99.90;;;;;;4899887;29;20257;-64
2024/01/05 16:11:31;;;;;;;0.70;0.50;;;8.90;99.90;;;;;;4913611;29;20647;-64
2024/01/05 16:14:00;;;;;;;0.30;0.30;;;8.90;99.90;;;;;;4918405;29;20202;-64
2024/01/05 16:16:27;;;;;;;0.30;0.30;;;8.90;99.90;;;;;;4918315;29;20468;-64
2024/01/05 16:18:53;;;;;;;0.30;0.20;;;8.90;99.90;;;;;;4918770;29;20175;-64
2024/01/05 16:21:26;;;;;;;0.30;0.30;;;8.80;99.90;;;;;;4918270;29;20527;-64
2024/01/05 16:23:54;;;;;;;0.30;0.30;;;8.80;99.90;;;;;;4917910;29;20519;-64
2024/01/05 16:26:21;;;;;;;0.40;0.40;;;8.80;99.90;;;;;;4918006;29;20204;-62
2024/01/05 16:28:47;;;;;;;0.30;0.30;;;8.80;99.90;;;;;;4918584;29;20186;-64
2024/01/05 16:31:13;;;;;;;0.30;0.30;;;8.80;99.90;;;;;;4918381;29;20264;-64
2024/01/05 16:33:39;;;;;;;0.30;0.30;;;8.80;99.90;;;;;;4918082;29;20301;-63
2024/01/05 16:36:06;;;;;;;0.30;0.30;;;8.80;99.90;;;;;;4916296;29;20434;-63
2024/01/05 16:38:34;;;;;;;2.80;2.30;;;8.80;99.90;;;;;;4898996;29;20227;-65
2024/01/05 16:41:00;;;;;;;0.30;0.30;;;8.80;99.90;;;;;;4899207;29;20559;-65
2024/01/05 16:43:26;;;;;;;0.40;0.40;;;8.80;99.90;;;;;;4899298;29;20175;-64
2024/01/05 16:45:52;;;;;;;0.30;0.30;;;8.80;99.90;;;;;;4898913;29;21034;-64
2024/01/05 16:48:20;;;;;;;0.40;0.40;;;8.80;99.90;;;;;;4899269;29;20229;-64
2024/01/05 16:50:46;;;;;;;0.30;0.30;;;8.80;99.90;;;;;;4899320;29;20407;-64
2024/01/05 16:53:13;;;;;;;0.30;0.30;;;8.80;99.90;;;;;;4899320;29;20230;-65
2024/01/05 16:55:38;;;;;;;0.40;0.40;;;8.80;99.90;;;;;;4897256;29;20204;-65
2024/01/05 16:58:04;;;;;;;0.30;0.30;;;8.70;99.90;;;;;;4898885;29;20183;-63
2024/01/05 17:00:30;;;;;;;2.10;2.00;;;8.70;99.90;;;;;;4898829;29;20246;-64
2024/01/05 17:02:56;;;;;;;0.30;0.30;;;8.60;99.90;;;;;;4899024;29;20935;-63
2024/01/05 17:05:21;;;;;;;1.27;1.17;;;8.50;99.90;;;;;;4898432;29;20889;-63
2024/01/05 17:07:47;;;;;;;0.30;0.30;;;8.50;99.90;;;;;;4904082;29;20595;-64
2024/01/05 17:10:13;;;;;;;0.50;0.50;;;8.50;99.90;;;;;;4898870;29;20206;-63
2024/01/05 17:12:40;;;;;;;0.40;0.40;;;8.40;99.90;;;;;;4898519;29;20182;-64
2024/01/05 17:15:07;;;;;;;0.32;0.32;;;8.40;99.90;;;;;;4898225;29;20207;-64
2024/01/05 17:17:33;;;;;;;0.40;0.40;;;8.30;99.90;;;;;;4899422;29;20186;-66
2024/01/05 17:19:59;;;;;;;0.40;0.40;;;8.20;99.90;;;;;;4908352;29;20170;-65
2024/01/05 17:22:25;;;;;;;0.30;0.30;;;8.10;99.90;;;;;;4918526;29;20524;-65
2024/01/05 17:24:50;;;;;;;0.40;0.40;;;8.10;99.90;;;;;;4916986;29;20414;-64
2024/01/05 17:27:16;;;;;;;0.30;0.30;;;8.00;99.90;;;;;;4917133;29;20236;-65
2024/01/05 17:29:46;;;;;;;0.40;0.40;;;8.00;99.90;;;;;;4916956;29;20705;-65
2024/01/05 17:32:12;;;;;;;0.30;0.30;;;8.00;99.90;;;;;;4914249;29;20189;-64
2024/01/05 17:34:38;;;;;;;0.32;0.32;;;8.10;99.90;;;;;;4920873;29;20219;-65
2024/01/05 17:37:07;;;;;;;0.30;0.30;;;8.00;99.90;;;;;;4904044;29;20694;-63
2024/01/05 17:39:34;;;;;;;0.30;0.30;;;8.00;99.90;;;;;;4898267;29;20323;-64
2024/01/05 17:42:00;;;;;;;0.55;0.55;;;8.00;99.90;;;;;;4898195;29;20643;-65
2024/01/05 17:44:25;;;;;;;0.30;0.30;;;7.90;99.90;;;;;;4900476;29;20217;-63
2024/01/05 17:46:51;;;;;;;0.40;0.40;;;7.90;99.90;;;;;;4902742;29;20214;-64
2024/01/05 17:49:18;;;;;;;0.40;0.40;;;7.90;99.90;;;;;;4910930;29;20663;-63
2024/01/05 17:51:44;;;;;;;0.30;0.30;;;7.90;99.90;;;;;;4915095;29;20543;-63
2024/01/05 17:54:09;;;;;;;0.50;0.50;;;7.90;99.90;;;;;;4914794;29;20293;-65
2024/01/05 17:56:36;;;;;;;0.50;0.50;;;7.90;99.90;;;;;;4916410;29;20769;-67
2024/01/05 17:59:03;;;;;;;0.55;0.55;;;7.90;99.90;;;;;;4913730;29;20173;-67